Relevés horaires Semmerzake (Belgique)


Relevés horaires à Semmerzake - Vendredi 15 Janv. 2021
Heure UTC1 Température [°C] Vent [km/h] Hum. [%] Pres.4 [hPa] Visi. [Km] Nébu. [octa] Préc.5 [mm] Cond.
2m. Res. Ros. Dir.2 Vit. Moy. Raf.3
23:00 0.4 0.4 -1.5 NNO 1.9 -- 1.9 87 1031.2(0.3/3h) 8 -- -- --
22:00 0.4 0.4 -1.4 NNO 1.9 -- 3.7 88 1030.7(0.1/3h) 8 -- -- --
21:00 0.6 0.6 -1.7 NNO 1.9 -- 3.7 85 1031(0.2/3h) 9 -- -- --
20:00 0.8 0.8 -1.5 NNO 1.9 -- 1.9 85 1031(0.2/3h) 9 -- -- --
19:00 0.8 0.8 -1.6 NNO 1.9 -- 1.9 84 1030.7(0.9/3h) 10 -- -- --
18:00 1.1 1.1 -2.0 NNO 1.9 -- 3.7 80 1030.5(1.1/3h) 13 -- -- --
17:00 1.2 1.2 -2.1 NNO 1.9 -- 3.7 79 1030.7(0.9/3h) 15 -- -- --
16:00 1.4 1.4 -2.0 NNO 1.9 -- 3.7 78 1029.7(-1.0/3h) 14 -- -- --
15:00 2.0 2.0 -3.9 NNO 1.9 -- 3.7 65 1029.7(-2.0/3h) 20 -- -- --
14:00 2.0 2.0 -3.5 NNO 1.9 -- 3.7 67 1029.5(-0.1/3h) 20 -- -- --
13:00 1.7 1.7 -2.5 N 3.7 -- 3.7 74 1030.7(-0.5/3h) 14 -- -- --
12:00 1.2 1.2 -2.5 NNO 1.9 -- 9.3 76 1031.7(1.4/3h) 16 -- -- --
11:00 0.8 0.8 -2.7 NNO 3.7 -- 7.4 77 1030.2(1.1/3h) 16 -- -- --
10:00 0.9 0.9 -2.9 N 3.7 -- 7.4 76 1031.4(4.4/3h) 17 -- -- --
08:00 0.1 -1.7 -3.1 NNE 5.6 -- 9.3 79 1029.2(4.4/3h) 19 -- -- --
07:00 -0.7 -2.7 -3.4 N 5.6 -- 9.3 82 1026.7(2.6/3h) 16 -- -- --
06:00 -1.1 -3.1 -3.0 NNE 5.6 -- 11.1 87 1025.2(1.7/3h) 14 -- 0.4/12h
--
05:00 -0.8 -2.8 -2.4 NNE 5.6 -- 9.3 89 1024.7(2.2/3h) 11 -- -- --
04:00 -0.7 -2.7 -2.3 NNE 5.6 -- 11.1 89 1024(2.7/3h) 9 -- -- --
03:00 -0.5 -3.1 -2.3 NNE 7.4 -- 11.1 88 1023.6(3.1/3h) 12 -- -- --
02:00 -0.4 -2.3 -2.2 NNE 5.6 -- 11.1 88 1022.5(2.8/3h) 13 -- -- --
01:00 -0.3 -2.2 -2.1 NNE 5.6 -- 11.1 88 1021(1.8/3h) 12 -- -- --
00:00 -0.1 -2.7 -1.7 NNE 7.4 -- 14.8 89 1020.2(1.8/3h) 10 -- 0.4/6h
NA

1 Coordinated Universal Time. Actuellement il est 16:00 locale et 15:00 UTC.

2 Le vent souffle depuis la direction indiquée vers la direction oposée.

3 Les rafales max. sont disponible 40 min après l'heure du relevé.

4 Pour les stations d'altitude (plus de 600m) le géopotentiel du niveau le plus proche de la pression obligatoire est indiqué.

5 Les stations disposant d'un diffuseur peuvent indiquer "trace". Cela signifie que des précipitations ont touchés le sol mais que la quantité est inférieure à 0.1 mm.

Récapitulatif de la journée
Température [°C] Vent [km/h] Ensoleillement4 [h] Precipitations totale5 [mm] Pression [Hpa]
Min1 Max.2 Moy.3 Max. Min Max.
-1.1 2.2 0 14.8 0 h 0 min 0 1020.2 1031.7

1 Température minimale relevée entre 18:00 UTC la veille et 18:00 UTC le jour donné.

2 Température maximale relevée entre 06:00 UTC le jour donné et 06:00 UTC le lendemain.

3 Vent moyen de la journée basé sur les relevés horaires.

4 Ensoleillement en heures relevé entre 06:00 UTC la veille et 06:00 UTC le jour donné.

5 Précipitations totales tombées entre 06:00 UTC la jour donné et 06:00 UTC le lendemain.

Graphiques horaires